createdAt,value
2022-10-17T00:02:42.198Z,57.14
2022-10-17T00:07:34.757Z,57.14
2022-10-17T00:12:27.522Z,57.13
2022-10-17T00:17:20.167Z,57.14
2022-10-17T00:22:12.778Z,57.09
2022-10-17T00:27:05.417Z,57.1
2022-10-17T00:31:57.912Z,57.12
2022-10-17T00:36:50.529Z,57.15
2022-10-17T00:41:43.079Z,57.15
2022-10-17T00:46:35.628Z,57.18
2022-10-17T00:51:28.282Z,57.17
2022-10-17T00:56:20.848Z,57.19
2022-10-17T01:01:13.593Z,57.15
2022-10-17T01:06:06.017Z,57.1
2022-10-17T01:10:58.684Z,57.08
2022-10-17T01:15:51.155Z,57.14
2022-10-17T01:20:43.728Z,57.15
2022-10-17T01:25:36.080Z,57.14
2022-10-17T01:30:28.691Z,57.16
2022-10-17T01:35:21.360Z,57.1
2022-10-17T01:40:13.957Z,57.12
2022-10-17T01:45:06.710Z,57.1
2022-10-17T01:49:59.569Z,57.08
2022-10-17T01:54:52.051Z,57.09
2022-10-17T01:59:44.677Z,57.08
2022-10-17T02:04:37.287Z,57.09
2022-10-17T02:09:30.071Z,57.15
2022-10-17T02:14:22.778Z,57.16
2022-10-17T02:19:15.330Z,57.13
2022-10-17T02:24:08.147Z,57.08
2022-10-17T02:29:00.952Z,57.17
2022-10-17T02:33:53.133Z,57.15
2022-10-17T02:38:45.784Z,57.15
2022-10-17T02:43:38.365Z,57.16
2022-10-17T02:48:31.066Z,57.11
2022-10-17T02:53:23.507Z,57.11
2022-10-17T02:58:16.017Z,57.09
2022-10-17T03:03:08.348Z,57.07
2022-10-17T03:08:00.655Z,57.13
2022-10-17T03:12:53.349Z,57.15
2022-10-17T03:22:38.573Z,57.12
2022-10-17T03:27:31.731Z,57.12
2022-10-17T03:32:23.921Z,57.08
2022-10-17T03:37:16.701Z,57.04
2022-10-17T03:42:09.244Z,57.05
2022-10-17T03:47:01.848Z,57.02
2022-10-17T03:51:54.330Z,57.09
2022-10-17T03:56:47.006Z,57.16
2022-10-17T04:01:39.501Z,57.17
2022-10-17T04:06:32.005Z,57.2
2022-10-17T04:11:24.718Z,57.15
2022-10-17T04:16:17.280Z,57.18
2022-10-17T04:21:10.078Z,57.15
2022-10-17T04:26:02.780Z,57.28
2022-10-17T04:30:55.419Z,57.26
2022-10-17T04:35:48.016Z,57.28
2022-10-17T04:40:40.558Z,57.28
2022-10-17T04:45:33.171Z,57.17
2022-10-17T04:50:25.930Z,57.6
2022-10-17T04:55:18.941Z,58.02
2022-10-17T05:00:11.609Z,56.79
2022-10-17T05:05:04.234Z,57.97
2022-10-17T05:14:49.830Z,57
2022-10-17T05:24:35.238Z,57.55
2022-10-17T05:34:20.708Z,56.3
2022-10-17T05:39:13.259Z,55.42
2022-10-17T05:44:05.768Z,55.73
2022-10-17T05:48:58.124Z,55.8
2022-10-17T05:53:50.664Z,55.73
2022-10-17T05:58:52.519Z,55.76
2022-10-17T06:03:35.853Z,55.91
2022-10-17T06:08:28.540Z,55.86
2022-10-17T06:13:21.242Z,55.92
2022-10-17T06:18:13.816Z,55.9
2022-10-17T06:23:06.403Z,55.93
2022-10-17T06:27:58.980Z,55.9
2022-10-17T06:32:51.419Z,55.95
2022-10-17T06:37:43.977Z,55.99
2022-10-17T06:42:36.538Z,56.01
2022-10-17T06:47:29.233Z,56.04
2022-10-17T06:52:21.539Z,56.05
2022-10-17T06:57:14.132Z,56.08
2022-10-17T07:02:06.903Z,56.06
2022-10-17T07:11:51.889Z,56.17
2022-10-17T07:16:44.331Z,56.11
2022-10-17T07:21:38.313Z,56.22
2022-10-17T07:26:29.648Z,56.18
2022-10-17T07:31:22.155Z,56.26
2022-10-17T07:36:14.875Z,56.26
2022-10-17T07:41:07.668Z,56.24
2022-10-17T07:46:00.474Z,56.39
2022-10-17T07:50:53.196Z,56.66
2022-10-17T07:55:45.833Z,57.11
2022-10-17T08:00:38.678Z,58.01
2022-10-17T08:05:30.838Z,58.51
2022-10-17T08:10:23.504Z,58.15
2022-10-17T08:15:15.954Z,58.04
2022-10-17T08:20:08.107Z,59.48
2022-10-17T08:25:00.933Z,58.63
2022-10-17T08:29:53.492Z,58.97
2022-10-17T08:34:46.252Z,58.09
2022-10-17T08:39:38.703Z,57.93
2022-10-17T08:44:31.012Z,57.73
2022-10-17T08:49:23.249Z,58.56
2022-10-17T08:54:15.810Z,58.22
2022-10-17T08:59:08.287Z,58.52
2022-10-17T09:04:00.945Z,58.3
2022-10-17T09:08:53.403Z,57.96
2022-10-17T09:13:46.433Z,57.72
2022-10-17T09:18:38.922Z,57.5
2022-10-17T09:23:31.581Z,57.28
2022-10-17T09:28:24.146Z,57.03
2022-10-17T09:33:34.034Z,57.13
2022-10-17T09:38:09.106Z,57.52
2022-10-17T09:43:01.752Z,57.35
2022-10-17T09:47:54.608Z,57.14
2022-10-17T09:52:47.286Z,57
2022-10-17T09:57:40.005Z,56.8
2022-10-17T10:02:33.249Z,56.8
2022-10-17T10:07:29.054Z,56.77
2022-10-17T10:12:18.105Z,56.66
2022-10-17T10:17:10.837Z,56.62
2022-10-17T10:22:03.613Z,56.62
2022-10-17T10:26:56.365Z,56.6
2022-10-17T10:31:48.959Z,56.44
2022-10-17T10:36:41.680Z,56.39
2022-10-17T10:41:34.289Z,56.44
2022-10-17T10:46:27.107Z,56.35
2022-10-17T10:51:20.047Z,56.39
2022-10-17T10:56:12.845Z,56.28
2022-10-17T11:01:05.557Z,56.11
2022-10-17T11:05:58.108Z,56.02
2022-10-17T11:10:50.867Z,55.89
2022-10-17T11:15:43.530Z,55.56
2022-10-17T11:20:36.196Z,55.37
2022-10-17T11:25:28.912Z,55.39
2022-10-17T11:30:21.590Z,55.28
2022-10-17T11:35:14.192Z,55.13
2022-10-17T11:40:06.829Z,54.83
2022-10-17T11:44:59.481Z,54.72
2022-10-17T11:49:52.314Z,54.46
2022-10-17T11:54:45.131Z,54.23
2022-10-17T11:59:37.353Z,54.08
2022-10-17T12:04:30.011Z,53.97
2022-10-17T12:09:22.797Z,53.9
2022-10-17T12:14:15.545Z,53.49
2022-10-17T12:19:08.359Z,53.13
2022-10-17T12:28:53.998Z,52.65
2022-10-17T12:38:39.385Z,53.17
2022-10-17T12:48:24.660Z,51.5
2022-10-17T12:58:09.793Z,50.53
2022-10-17T13:07:55.021Z,50.38
2022-10-17T13:17:43.008Z,50.34
2022-10-17T13:22:33.472Z,50.51
2022-10-17T13:27:25.986Z,50.26
2022-10-17T13:32:18.355Z,50.45
2022-10-17T13:37:10.938Z,50.49
2022-10-17T13:42:03.514Z,50.63
2022-10-17T13:46:56.291Z,50.67
2022-10-17T13:51:48.933Z,50.78
2022-10-17T13:56:41.514Z,50.93
2022-10-17T14:01:34.101Z,50.85
2022-10-17T14:06:26.743Z,50.83
2022-10-17T14:11:19.332Z,51.09
2022-10-17T14:16:12.107Z,51.1
2022-10-17T14:21:37.091Z,51.31
2022-10-17T14:25:57.386Z,51.38
2022-10-17T14:30:57.901Z,51.35
2022-10-17T14:35:42.836Z,51.28
2022-10-17T14:40:35.079Z,51.35
2022-10-17T14:45:27.785Z,51.5
2022-10-17T14:50:20.556Z,51.24
2022-10-17T14:55:13.470Z,51.31
2022-10-17T15:00:06.350Z,51.52
2022-10-17T15:04:59.095Z,51.69
2022-10-17T15:09:51.770Z,52.03
2022-10-17T15:14:44.515Z,52.16
2022-10-17T15:19:37.179Z,52.27
2022-10-17T15:24:29.806Z,52.47
2022-10-17T15:29:22.333Z,52.57
2022-10-17T15:34:14.996Z,52.68
2022-10-17T15:39:07.480Z,52.77
2022-10-17T15:43:59.724Z,52.75
2022-10-17T15:48:52.732Z,52.76
2022-10-17T15:53:45.418Z,52.77
2022-10-17T15:58:38.274Z,52.73
2022-10-17T16:03:31.029Z,52.67
2022-10-17T16:08:23.688Z,52.63
2022-10-17T16:13:16.384Z,52.63
2022-10-17T16:18:09.996Z,52.56
2022-10-17T16:23:01.662Z,52.68
2022-10-17T16:27:54.360Z,52.71
2022-10-17T16:32:46.948Z,53.05
2022-10-17T16:37:39.522Z,52.56
2022-10-17T16:42:32.487Z,52.48
2022-10-17T16:47:24.815Z,52.53
2022-10-17T16:52:17.383Z,52.52
2022-10-17T16:57:09.965Z,51.99
2022-10-17T17:02:02.469Z,52.07
2022-10-17T17:06:55.203Z,52.17
2022-10-17T17:11:47.965Z,52.48
2022-10-17T17:16:40.413Z,52.4
2022-10-17T17:21:33.076Z,52.67
2022-10-17T17:26:25.817Z,52.8
2022-10-17T17:31:18.622Z,52.92
2022-10-17T17:36:11.278Z,52.84
2022-10-17T17:41:03.823Z,52.99
2022-10-17T17:45:56.519Z,52.93
2022-10-17T17:50:49.023Z,52.76
2022-10-17T17:55:41.636Z,52.85
2022-10-17T18:05:26.888Z,53.01
2022-10-17T18:15:12.403Z,53.02
2022-10-17T18:20:05.074Z,53.12
2022-10-17T18:24:57.907Z,53.14
2022-10-17T18:29:50.716Z,53.19
2022-10-17T18:34:43.405Z,53.28
2022-10-17T18:39:36.173Z,53.34
2022-10-17T18:44:29.030Z,53.57
2022-10-17T18:49:21.265Z,53.6
2022-10-17T18:54:14.053Z,53.62
2022-10-17T18:59:06.707Z,53.75
2022-10-17T19:03:59.318Z,53.81
2022-10-17T19:08:51.931Z,53.9
2022-10-17T19:18:36.888Z,54.27
2022-10-17T19:23:29.626Z,54.36
2022-10-17T19:28:23.270Z,54.41
2022-10-17T19:33:14.923Z,54.58
2022-10-17T19:38:07.625Z,54.63
2022-10-17T19:43:00.307Z,54.68
2022-10-17T19:47:53.009Z,54.66
2022-10-17T19:52:45.474Z,54.73
2022-10-17T19:57:38.025Z,54.69
2022-10-17T20:02:30.956Z,54.72
2022-10-17T20:07:23.494Z,54.71
2022-10-17T20:12:16.269Z,54.71
2022-10-17T20:17:08.939Z,54.75
2022-10-17T20:22:01.510Z,54.76
2022-10-17T20:26:54.256Z,54.78
2022-10-17T20:31:46.751Z,54.84
2022-10-17T20:36:39.501Z,54.86
2022-10-17T20:41:31.998Z,54.9
2022-10-17T20:46:45.126Z,54.98
2022-10-17T20:51:17.557Z,55
2022-10-17T20:56:09.780Z,55.02
2022-10-17T21:01:02.371Z,55
2022-10-17T21:05:54.986Z,55.04
2022-10-17T21:10:47.657Z,55.08
2022-10-17T21:15:40.523Z,55.16
2022-10-17T21:20:33.163Z,55.13
2022-10-17T21:25:26.060Z,55.09
2022-10-17T21:30:18.619Z,55.1
2022-10-17T21:35:11.329Z,55.14
2022-10-17T21:40:03.969Z,55.21
2022-10-17T21:44:56.594Z,55.24
2022-10-17T21:49:49.182Z,55.21
2022-10-17T21:54:41.829Z,55.28
2022-10-17T21:59:34.478Z,55.3
2022-10-17T22:04:26.996Z,55.37
2022-10-17T22:09:19.673Z,55.33
2022-10-17T22:14:12.241Z,55.37
2022-10-17T22:19:06.050Z,55.31
2022-10-17T22:23:57.593Z,55.32
2022-10-17T22:28:50.367Z,55.41
2022-10-17T22:33:42.853Z,55.4
2022-10-17T22:38:35.415Z,55.41
2022-10-17T22:43:28.011Z,55.45
2022-10-17T22:48:20.569Z,55.43
2022-10-17T22:53:13.259Z,55.5
2022-10-17T22:58:05.901Z,55.47
2022-10-17T23:02:58.518Z,55.51
2022-10-17T23:07:50.931Z,55.49
2022-10-17T23:12:43.565Z,55.53
2022-10-17T23:17:35.927Z,55.59
2022-10-17T23:22:28.890Z,55.6
2022-10-17T23:27:21.285Z,55.57
2022-10-17T23:32:13.874Z,55.5
2022-10-17T23:37:06.461Z,55.53
2022-10-17T23:41:58.666Z,55.64
2022-10-17T23:51:44.111Z,55.63
